Terminal Aerodrome Forecast
Issued by NWS Cleveland, OH

Home | Current Version | Previous Version | Text Only | Print | Product List | Glossary Off
Versions: 1 2 3 4 5 6 7 8 9 10 11 12 13 14 15 16 17

000
FTUS41 KCLE 192300
TAFCAK
TAF
KCAK 192330Z 2000/2024 18008KT P6SM SCT005 OVC015
      TEMPO 2000/2002 2SM -SHRA OVC005
     FM200200 00000KT P6SM BKN015
     FM200500 VRB03KT 4SM BR SCT004 OVC025
     FM200800 00000KT 1/2SM FG OVC004
     FM201400 VRB03KT 4SM BR BKN012
     FM201600 VRB04KT P6SM BKN025
     FM202100 20004KT P6SM SCT050=

USA.gov is the U.S. government's official web portal to all federal, state and local government web resources and services.